createdAt,value
2022-10-22T00:00:00.280Z,9.1
2022-10-22T00:10:00.227Z,9.2
2022-10-22T00:20:00.318Z,9.1
2022-10-22T00:30:00.228Z,9.1
2022-10-22T00:40:00.453Z,9.1
2022-10-22T00:50:00.308Z,9.0
2022-10-22T01:00:00.394Z,9.0
2022-10-22T01:10:00.257Z,9.0
2022-10-22T01:20:00.323Z,9.0
2022-10-22T01:30:00.284Z,8.9
2022-10-22T01:40:00.226Z,8.9
2022-10-22T01:50:00.296Z,8.9
2022-10-22T02:00:00.298Z,8.8
2022-10-22T02:10:00.310Z,8.8
2022-10-22T02:20:00.328Z,8.7
2022-10-22T02:30:00.313Z,8.6
2022-10-22T02:40:00.325Z,8.5
2022-10-22T02:50:00.283Z,8.4
2022-10-22T03:00:00.283Z,8.4
2022-10-22T03:10:00.258Z,8.3
2022-10-22T03:20:00.257Z,8.3
2022-10-22T03:30:00.253Z,8.3
2022-10-22T03:40:00.296Z,8.2
2022-10-22T03:50:00.233Z,8.1
2022-10-22T04:00:00.371Z,8.1
2022-10-22T04:10:00.250Z,8.0
2022-10-22T04:20:00.280Z,7.9
2022-10-22T04:30:00.306Z,7.8
2022-10-22T04:40:00.229Z,7.7
2022-10-22T04:50:00.331Z,7.7
2022-10-22T05:00:00.270Z,7.7
2022-10-22T05:10:00.261Z,7.6
2022-10-22T05:20:00.256Z,7.6
2022-10-22T05:30:00.262Z,7.6
2022-10-22T05:40:06.440Z,7.5
2022-10-22T05:50:00.279Z,7.5
2022-10-22T06:00:00.297Z,7.6
2022-10-22T06:10:00.252Z,7.6
2022-10-22T06:20:00.385Z,7.6
2022-10-22T06:30:00.278Z,7.8
2022-10-22T06:40:00.317Z,7.9
2022-10-22T06:50:00.241Z,8.2
2022-10-22T07:00:00.279Z,8.5
2022-10-22T07:10:00.301Z,8.8
2022-10-22T07:20:00.259Z,9.1
2022-10-22T07:30:00.325Z,9.3
2022-10-22T07:40:02.749Z,9.5
2022-10-22T07:50:00.229Z,9.7
2022-10-22T08:00:00.323Z,10.0
2022-10-22T08:10:00.280Z,10.2
2022-10-22T08:20:00.334Z,10.4
2022-10-22T08:30:00.275Z,10.6
2022-10-22T08:40:00.272Z,10.9
2022-10-22T08:50:00.281Z,11.4
2022-10-22T09:00:00.274Z,11.8
2022-10-22T09:10:00.265Z,12.2
2022-10-22T09:20:00.293Z,12.6
2022-10-22T09:30:00.351Z,12.9
2022-10-22T09:40:00.262Z,13.2
2022-10-22T09:50:00.276Z,13.5
2022-10-22T10:00:00.283Z,13.8
2022-10-22T10:10:00.245Z,14.0
2022-10-22T10:20:02.853Z,14.2
2022-10-22T10:30:00.299Z,14.2
2022-10-22T10:40:00.331Z,14.3
2022-10-22T10:50:00.259Z,14.4
2022-10-22T11:00:00.286Z,14.4
2022-10-22T11:10:00.266Z,14.4
2022-10-22T11:20:00.492Z,14.3
2022-10-22T11:30:00.260Z,14.3
2022-10-22T11:40:00.251Z,14.4
2022-10-22T11:50:00.316Z,14.5
2022-10-22T12:00:00.250Z,14.6
2022-10-22T12:10:00.309Z,14.6
2022-10-22T12:20:01.948Z,14.7
2022-10-22T12:30:00.278Z,14.6
2022-10-22T12:40:00.237Z,14.7
2022-10-22T12:50:00.224Z,14.6
2022-10-22T13:10:00.313Z,14.4
2022-10-22T13:20:00.281Z,14.4
2022-10-22T13:30:00.293Z,14.3
2022-10-22T13:40:00.286Z,14.2
2022-10-22T13:50:00.362Z,14.2
2022-10-22T14:00:00.734Z,14.1
2022-10-22T14:10:00.336Z,14.0
2022-10-22T14:20:00.341Z,14.0
2022-10-22T14:30:00.291Z,13.9
2022-10-22T14:40:00.294Z,13.8
2022-10-22T14:50:00.370Z,13.8
2022-10-22T15:00:00.335Z,13.8
2022-10-22T15:10:00.337Z,13.7
2022-10-22T15:20:00.391Z,13.7
2022-10-22T15:30:00.439Z,13.7
2022-10-22T15:40:00.257Z,13.6
2022-10-22T15:50:00.280Z,13.6
2022-10-22T16:00:00.217Z,13.6
2022-10-22T16:10:00.263Z,13.6
2022-10-22T16:20:00.351Z,13.5
2022-10-22T16:30:00.343Z,13.4
2022-10-22T16:40:02.939Z,13.3
2022-10-22T16:50:00.272Z,13.2
2022-10-22T17:00:00.279Z,13.2
2022-10-22T17:10:00.238Z,13.0
2022-10-22T17:20:00.293Z,12.9
2022-10-22T17:30:00.331Z,12.8
2022-10-22T17:40:00.345Z,12.7
2022-10-22T17:50:00.262Z,12.6
2022-10-22T18:00:00.442Z,12.5
2022-10-22T18:10:04.042Z,12.3
2022-10-22T18:20:03.417Z,12.1
2022-10-22T18:30:01.648Z,11.9
2022-10-22T18:40:00.357Z,11.8
2022-10-22T18:50:00.510Z,11.7
2022-10-22T19:00:00.270Z,11.6
2022-10-22T19:10:00.309Z,11.4
2022-10-22T19:20:00.313Z,11.3
2022-10-22T19:30:00.327Z,11.0
2022-10-22T19:40:00.334Z,10.8
2022-10-22T19:50:00.482Z,10.7
2022-10-22T20:00:00.546Z,10.6
2022-10-22T20:10:00.331Z,10.4
2022-10-22T20:20:00.261Z,10.3
2022-10-22T20:30:00.304Z,10.2
2022-10-22T20:40:00.550Z,10.0
2022-10-22T20:50:00.244Z,9.8
2022-10-22T21:00:00.254Z,9.7
2022-10-22T21:10:00.321Z,9.6
2022-10-22T21:20:00.378Z,9.5
2022-10-22T21:30:00.263Z,9.4
2022-10-22T21:40:00.234Z,9.2
2022-10-22T21:50:00.241Z,9.1
2022-10-22T22:00:00.284Z,8.9
2022-10-22T22:10:00.321Z,8.8
2022-10-22T22:20:00.287Z,8.7
2022-10-22T22:30:00.282Z,8.6
2022-10-22T22:40:00.262Z,8.5
2022-10-22T22:50:00.286Z,8.4
2022-10-22T23:00:00.271Z,8.4
2022-10-22T23:10:00.285Z,8.3
2022-10-22T23:20:00.273Z,8.2
2022-10-22T23:30:00.274Z,8.1
2022-10-22T23:40:00.252Z,8.0
2022-10-22T23:50:00.248Z,8.0
